createdAt,value
2018-09-19T00:00:25.932Z,3.90
2018-09-19T00:01:25.900Z,2.30
2018-09-19T00:02:25.894Z,2.40
2018-09-19T00:03:25.889Z,2.50
2018-09-19T00:04:25.867Z,2.40
2018-09-19T00:05:25.873Z,2.90
2018-09-19T00:06:25.846Z,2.40
2018-09-19T00:07:25.836Z,2.00
2018-09-19T00:08:25.822Z,2.50
2018-09-19T00:09:25.835Z,2.50
2018-09-19T00:10:25.821Z,2.40
2018-09-19T00:11:25.796Z,2.00
2018-09-19T00:12:25.784Z,2.20
2018-09-19T00:13:25.773Z,2.60
2018-09-19T00:14:25.770Z,2.30
2018-09-19T00:15:25.776Z,2.20
2018-09-19T00:16:25.740Z,3.00
2018-09-19T00:17:25.742Z,2.70
2018-09-19T00:18:25.716Z,2.40
2018-09-19T00:19:25.705Z,2.30
2018-09-19T00:20:25.728Z,2.40
2018-09-19T00:21:25.689Z,2.50
2018-09-19T00:22:25.699Z,3.20
2018-09-19T00:23:25.663Z,2.70
2018-09-19T00:24:25.651Z,2.60
2018-09-19T00:25:25.656Z,2.50
2018-09-19T00:26:25.627Z,2.60
2018-09-19T00:27:25.623Z,4.00
2018-09-19T00:28:25.614Z,2.80
2018-09-19T00:29:25.598Z,2.70
2018-09-19T00:30:25.605Z,3.30
2018-09-19T00:31:25.572Z,2.60
2018-09-19T00:32:25.560Z,2.60
2018-09-19T00:33:25.557Z,2.90
2018-09-19T00:34:25.538Z,2.40
2018-09-19T00:35:25.556Z,2.80
2018-09-19T00:36:25.515Z,3.20
2018-09-19T00:37:25.505Z,2.60
2018-09-19T00:38:25.494Z,3.90
2018-09-19T00:39:25.493Z,2.20
2018-09-19T00:40:25.471Z,2.70
2018-09-19T00:41:25.478Z,2.40
2018-09-19T00:42:25.457Z,2.30
2018-09-19T00:43:25.445Z,3.10
2018-09-19T00:44:25.431Z,2.50
2018-09-19T00:45:25.433Z,2.50
2018-09-19T00:46:25.421Z,2.60
2018-09-19T00:47:25.397Z,2.50
2018-09-19T00:48:25.383Z,2.70
2018-09-19T00:49:25.372Z,2.30
2018-09-19T00:50:25.360Z,2.20
2018-09-19T00:51:25.379Z,2.60
2018-09-19T00:52:25.337Z,2.40
2018-09-19T00:53:25.327Z,2.30
2018-09-19T00:54:25.328Z,2.50
2018-09-19T00:55:25.307Z,2.60
2018-09-19T00:56:25.334Z,2.40
2018-09-19T00:57:25.293Z,3.10
2018-09-19T00:58:25.272Z,2.50
2018-09-19T00:59:25.268Z,2.50
2018-09-19T01:00:25.250Z,2.70
2018-09-19T01:01:25.255Z,2.50
2018-09-19T01:02:25.228Z,2.40
2018-09-19T01:03:25.226Z,2.30
2018-09-19T01:04:25.207Z,2.90
2018-09-19T01:05:25.201Z,2.50
2018-09-19T01:06:25.206Z,2.40
2018-09-19T01:07:25.175Z,2.60
2018-09-19T01:08:25.162Z,2.70
2018-09-19T01:09:25.157Z,3.70
2018-09-19T01:10:25.143Z,2.60
2018-09-19T01:11:25.148Z,2.20
2018-09-19T01:12:25.116Z,2.50
2018-09-19T01:13:25.115Z,2.50
2018-09-19T01:14:25.098Z,2.50
2018-09-19T01:15:25.093Z,2.20
2018-09-19T01:16:25.090Z,2.50
2018-09-19T01:17:25.082Z,2.50
2018-09-19T01:18:25.050Z,2.90
2018-09-19T01:19:25.118Z,2.90
2018-09-19T01:20:25.036Z,2.40
2018-09-19T01:21:25.051Z,2.80
2018-09-19T01:22:25.013Z,3.50
2018-09-19T01:23:25.003Z,2.50
2018-09-19T01:24:24.984Z,2.40
2018-09-19T01:25:24.975Z,2.50
2018-09-19T01:26:24.981Z,3.10
2018-09-19T01:27:24.966Z,2.40
2018-09-19T01:28:24.944Z,2.70
2018-09-19T01:29:24.933Z,2.50
2018-09-19T01:30:24.925Z,2.60
2018-09-19T01:31:24.923Z,2.70
2018-09-19T01:32:24.900Z,2.60
2018-09-19T01:33:24.894Z,2.80
2018-09-19T01:34:24.874Z,2.40
2018-09-19T01:35:24.867Z,2.60
2018-09-19T01:36:24.869Z,2.80
2018-09-19T01:37:24.841Z,2.70
2018-09-19T01:38:24.832Z,2.70
2018-09-19T01:39:24.827Z,2.40
2018-09-19T01:40:24.814Z,2.80
2018-09-19T01:41:24.820Z,2.60
2018-09-19T01:42:24.791Z,2.60
2018-09-19T01:43:24.787Z,2.80
2018-09-19T01:44:24.800Z,2.50
2018-09-19T01:45:24.764Z,2.30
2018-09-19T01:46:24.758Z,2.50
2018-09-19T01:47:24.738Z,2.30
2018-09-19T01:48:24.726Z,2.40
2018-09-19T01:49:24.709Z,2.80
2018-09-19T01:50:24.701Z,2.40
2018-09-19T01:51:24.713Z,2.60
2018-09-19T01:52:24.677Z,2.90
2018-09-19T01:53:24.676Z,2.40
2018-09-19T01:54:24.656Z,2.70
2018-09-19T01:55:24.660Z,2.60
2018-09-19T01:56:24.651Z,2.50
2018-09-19T01:57:24.632Z,2.50
2018-09-19T01:58:24.614Z,2.80
2018-09-19T01:59:24.598Z,3.70
2018-09-19T02:00:24.587Z,2.60
2018-09-19T02:01:24.595Z,2.60
2018-09-19T02:02:24.575Z,2.70
2018-09-19T02:03:24.569Z,2.30
2018-09-19T02:04:24.544Z,2.20
2018-09-19T02:05:24.533Z,2.30
2018-09-19T02:06:24.552Z,2.60
2018-09-19T02:07:24.509Z,3.00
2018-09-19T02:08:24.504Z,2.30
2018-09-19T02:09:24.503Z,2.60
2018-09-19T02:10:24.477Z,2.50
2018-09-19T02:11:24.494Z,3.00
2018-09-19T02:12:24.470Z,2.40
2018-09-19T02:13:24.456Z,2.40
2018-09-19T02:14:24.433Z,2.30
2018-09-19T02:15:24.431Z,2.40
2018-09-19T02:16:24.416Z,2.20
2018-09-19T02:17:24.419Z,2.60
2018-09-19T02:18:24.396Z,2.20
2018-09-19T02:19:24.381Z,2.20
2018-09-19T02:20:24.367Z,2.50
2018-09-19T02:21:24.379Z,2.30
2018-09-19T02:22:24.360Z,2.50
2018-09-19T02:23:24.342Z,2.30
2018-09-19T02:24:24.322Z,2.30
2018-09-19T02:25:24.311Z,2.40
2018-09-19T02:26:24.304Z,2.40
2018-09-19T02:27:24.316Z,2.80
2018-09-19T02:28:24.294Z,2.40
2018-09-19T02:29:24.272Z,2.10
2018-09-19T02:30:24.271Z,2.40
2018-09-19T02:31:24.251Z,3.00
2018-09-19T02:32:24.254Z,2.50
2018-09-19T02:33:24.231Z,2.40
2018-09-19T02:34:24.219Z,2.70
2018-09-19T02:35:24.202Z,2.50
2018-09-19T02:36:24.192Z,2.80
2018-09-19T02:37:24.209Z,2.40
2018-09-19T02:38:24.169Z,2.50
2018-09-19T02:39:24.175Z,2.60
2018-09-19T02:40:24.151Z,3.10
2018-09-19T02:41:24.136Z,2.50
2018-09-19T02:42:24.141Z,2.60
2018-09-19T02:43:24.117Z,4.10
2018-09-19T02:44:24.155Z,2.60
2018-09-19T02:45:24.103Z,2.50
2018-09-19T02:46:24.082Z,2.30
2018-09-19T02:47:24.092Z,2.70
2018-09-19T02:48:24.063Z,2.30
2018-09-19T02:49:24.049Z,2.50
2018-09-19T02:50:24.044Z,2.40
2018-09-19T02:51:24.038Z,2.30
2018-09-19T02:52:24.032Z,2.50
2018-09-19T02:53:24.006Z,2.60
2018-09-19T02:54:24.013Z,2.30
2018-09-19T02:55:23.985Z,2.70
2018-09-19T02:56:23.972Z,2.70
2018-09-19T02:57:23.992Z,2.70
2018-09-19T02:58:23.951Z,2.50
2018-09-19T02:59:23.977Z,2.60
2018-09-19T03:00:23.928Z,2.40
2018-09-19T03:01:23.917Z,2.30
2018-09-19T03:02:23.922Z,2.60
2018-09-19T03:03:23.904Z,2.50
2018-09-19T03:04:23.890Z,2.80
2018-09-19T03:05:23.882Z,2.60
2018-09-19T03:06:23.867Z,2.60
2018-09-19T03:07:23.874Z,3.30
2018-09-19T03:08:23.840Z,2.50
2018-09-19T03:09:23.847Z,2.70
2018-09-19T03:10:23.821Z,3.50
2018-09-19T03:11:23.811Z,3.00
2018-09-19T03:12:23.823Z,2.80
2018-09-19T03:13:23.790Z,2.40
2018-09-19T03:14:23.778Z,2.60
2018-09-19T03:15:23.774Z,2.40
2018-09-19T03:16:23.761Z,2.70
2018-09-19T03:17:23.841Z,3.30
2018-09-19T03:18:23.731Z,2.60
2018-09-19T03:19:23.726Z,3.10
2018-09-19T03:20:23.714Z,2.60
2018-09-19T03:21:23.715Z,2.80
2018-09-19T03:22:23.709Z,2.60
2018-09-19T03:23:23.679Z,2.90
2018-09-19T03:24:23.668Z,2.80
2018-09-19T03:25:23.657Z,2.60
2018-09-19T03:26:23.644Z,2.60
2018-09-19T03:27:23.654Z,2.70
2018-09-19T03:28:23.620Z,2.50
2018-09-19T03:29:23.610Z,2.70
2018-09-19T03:30:23.602Z,2.60
2018-09-19T03:31:23.613Z,2.60
2018-09-19T03:32:23.607Z,3.30
2018-09-19T03:33:23.583Z,2.80
2018-09-19T03:34:23.559Z,2.50
2018-09-19T03:35:23.644Z,2.60
2018-09-19T03:36:23.533Z,2.90
2018-09-19T03:37:23.526Z,2.50
2018-09-19T03:38:23.527Z,2.50
2018-09-19T03:39:23.513Z,2.70
2018-09-19T03:40:23.495Z,2.80
2018-09-19T03:41:23.492Z,2.70
2018-09-19T03:42:23.471Z,2.60
2018-09-19T03:43:23.475Z,2.60
2018-09-19T03:44:23.457Z,2.40
2018-09-19T03:45:23.465Z,2.70
2018-09-19T03:46:23.424Z,2.90
2018-09-19T03:47:23.415Z,2.60
2018-09-19T03:48:23.426Z,2.30
2018-09-19T03:49:23.391Z,2.80
2018-09-19T03:50:23.392Z,3.50
2018-09-19T03:51:23.384Z,2.50
2018-09-19T03:52:23.358Z,2.70
2018-09-19T03:53:23.372Z,2.50
2018-09-19T03:54:23.337Z,2.60
2018-09-19T03:55:23.328Z,2.80
2018-09-19T03:56:23.314Z,2.70
2018-09-19T03:57:23.322Z,3.10
2018-09-19T03:58:23.409Z,2.60
2018-09-19T03:59:23.282Z,3.30
2018-09-19T04:00:23.272Z,3.80
2018-09-19T04:01:23.262Z,3.20
2018-09-19T04:02:23.255Z,2.90
2018-09-19T04:03:23.276Z,2.80
2018-09-19T04:04:23.234Z,2.50
2018-09-19T04:05:23.218Z,2.60
2018-09-19T04:06:23.207Z,2.70
2018-09-19T04:07:23.202Z,2.70
2018-09-19T04:08:23.199Z,3.10
2018-09-19T04:09:23.179Z,2.60
2018-09-19T04:10:23.184Z,2.60
2018-09-19T04:11:23.151Z,2.70
2018-09-19T04:12:23.140Z,3.80
2018-09-19T04:13:23.147Z,2.50
2018-09-19T04:14:23.123Z,3.90
2018-09-19T04:15:23.116Z,3.20
2018-09-19T04:16:23.097Z,2.60
2018-09-19T04:17:23.097Z,2.90
2018-09-19T04:18:23.092Z,4.20
2018-09-19T04:19:23.065Z,4.10
2018-09-19T04:20:23.076Z,3.30
2018-09-19T04:21:23.082Z,3.30
2018-09-19T04:22:23.055Z,3.90
2018-09-19T04:23:23.034Z,3.50
2018-09-19T04:24:23.018Z,4.60
2018-09-19T04:25:23.043Z,3.50
2018-09-19T04:26:23.007Z,5.00
2018-09-19T04:27:22.986Z,4.00
2018-09-19T04:28:22.978Z,4.30
2018-09-19T04:29:22.967Z,3.70
2018-09-19T04:30:22.942Z,3.90
2018-09-19T04:31:22.931Z,3.50
2018-09-19T04:32:23.003Z,4.80
2018-09-19T04:33:22.931Z,3.40
2018-09-19T04:34:22.900Z,5.20
2018-09-19T04:35:22.888Z,3.50
2018-09-19T04:36:22.922Z,3.20
2018-09-19T04:37:22.864Z,4.30
2018-09-19T04:38:22.874Z,3.30
2018-09-19T04:39:22.851Z,5.30
2018-09-19T04:40:22.835Z,4.10
2018-09-19T04:41:22.821Z,3.70
2018-09-19T04:42:22.825Z,3.00
2018-09-19T04:43:22.816Z,5.00
2018-09-19T04:44:22.792Z,4.60
2018-09-19T04:45:22.800Z,5.90
2018-09-19T04:46:22.769Z,6.30
2018-09-19T04:47:22.782Z,4.50
2018-09-19T04:48:22.757Z,5.10
2018-09-19T04:49:22.739Z,6.40
2018-09-19T04:50:22.741Z,8.20
2018-09-19T04:51:22.738Z,5.80
2018-09-19T04:52:22.702Z,3.40
2018-09-19T04:53:22.709Z,5.70
2018-09-19T04:54:22.680Z,4.50
2018-09-19T04:55:22.681Z,4.10
2018-09-19T04:56:22.688Z,4.30
2018-09-19T04:57:22.649Z,5.10
2018-09-19T04:58:22.661Z,5.00
2018-09-19T04:59:22.621Z,6.70
2018-09-19T05:00:22.633Z,4.70
2018-09-19T05:01:22.601Z,4.70
2018-09-19T05:02:22.595Z,5.10
2018-09-19T05:03:22.599Z,5.60
2018-09-19T05:04:22.588Z,4.40
2018-09-19T05:05:22.563Z,6.40
2018-09-19T05:06:22.578Z,3.90
2018-09-19T05:07:22.602Z,3.70
2018-09-19T05:08:22.558Z,5.20
2018-09-19T05:09:22.513Z,3.40
2018-09-19T05:10:22.504Z,3.80
2018-09-19T05:11:22.554Z,4.90
2018-09-19T05:12:22.494Z,4.40
2018-09-19T05:13:22.471Z,3.90
2018-09-19T05:14:22.474Z,4.50
2018-09-19T05:15:22.456Z,3.90
2018-09-19T05:16:22.435Z,3.20
2018-09-19T05:17:22.426Z,4.10
2018-09-19T05:18:22.423Z,5.00
2018-09-19T05:19:22.417Z,4.30
2018-09-19T05:20:22.395Z,3.80
2018-09-19T05:21:22.381Z,3.70
2018-09-19T05:22:22.383Z,4.40
2018-09-19T05:23:22.361Z,3.20
2018-09-19T05:24:22.365Z,5.90
2018-09-19T05:25:22.338Z,3.80
2018-09-19T05:26:22.325Z,4.80
2018-09-19T05:27:22.315Z,3.00
2018-09-19T05:28:22.311Z,4.40
2018-09-19T05:29:22.315Z,3.10
2018-09-19T05:30:22.281Z,4.30
2018-09-19T05:31:22.269Z,3.90
2018-09-19T05:32:22.260Z,3.30
2018-09-19T05:33:22.257Z,3.70
2018-09-19T05:34:22.252Z,4.70
2018-09-19T05:35:22.240Z,4.10
2018-09-19T05:36:22.213Z,4.20
2018-09-19T05:37:22.206Z,4.30
2018-09-19T05:38:22.203Z,4.00
2018-09-19T05:39:22.197Z,3.60
2018-09-19T05:40:22.173Z,3.10
2018-09-19T05:41:22.162Z,3.00
2018-09-19T05:42:22.148Z,4.00
2018-09-19T05:43:22.138Z,3.40
2018-09-19T05:44:22.164Z,6.20
2018-09-19T05:45:22.114Z,3.20
2018-09-19T05:46:22.146Z,4.40
2018-09-19T05:47:22.098Z,3.60
2018-09-19T05:48:22.083Z,3.60
2018-09-19T05:49:22.086Z,4.40
2018-09-19T05:50:22.059Z,3.40
2018-09-19T05:51:22.056Z,3.20
2018-09-19T05:52:22.038Z,3.30
2018-09-19T05:53:22.029Z,4.70
2018-09-19T05:54:22.046Z,3.20
2018-09-19T05:55:22.014Z,3.10
2018-09-19T05:56:22.011Z,3.90
2018-09-19T05:57:21.987Z,3.90
2018-09-19T05:58:21.972Z,3.20
2018-09-19T05:59:21.988Z,3.60
2018-09-19T06:00:21.952Z,3.30
2018-09-19T06:01:21.940Z,3.20
2018-09-19T06:02:21.929Z,3.10
2018-09-19T06:03:21.922Z,4.50
2018-09-19T06:04:21.938Z,3.30
2018-09-19T06:05:21.895Z,4.80
2018-09-19T06:06:21.884Z,3.50
2018-09-19T06:07:21.870Z,3.50
2018-09-19T06:08:21.860Z,3.30
2018-09-19T06:09:21.869Z,3.40
2018-09-19T06:10:21.841Z,3.30
2018-09-19T06:11:21.829Z,4.60
2018-09-19T06:12:21.818Z,4.00
2018-09-19T06:13:21.806Z,3.60
2018-09-19T06:14:21.812Z,4.30
2018-09-19T06:15:21.786Z,3.50
2018-09-19T06:16:21.789Z,3.80
2018-09-19T06:17:21.761Z,3.20
2018-09-19T06:18:21.749Z,4.10
2018-09-19T06:19:21.761Z,3.20
2018-09-19T06:20:21.728Z,3.10
2018-09-19T06:21:21.716Z,2.80
2018-09-19T06:22:21.706Z,4.50
2018-09-19T06:23:21.693Z,3.30
2018-09-19T06:24:21.703Z,4.50
2018-09-19T06:25:21.680Z,3.00
2018-09-19T06:26:21.664Z,3.10
2018-09-19T06:27:21.653Z,3.40
2018-09-19T06:28:21.639Z,4.10
2018-09-19T06:29:21.643Z,3.20
2018-09-19T06:30:21.623Z,4.30
2018-09-19T06:31:21.609Z,3.00
2018-09-19T06:32:21.604Z,3.40
2018-09-19T06:33:21.636Z,3.70
2018-09-19T06:34:21.573Z,3.10
2018-09-19T06:35:21.577Z,3.20
2018-09-19T06:36:21.552Z,3.30
2018-09-19T06:37:21.543Z,4.20
2018-09-19T06:38:21.558Z,3.80
2018-09-19T06:39:21.525Z,3.30
2018-09-19T06:40:21.595Z,3.70
2018-09-19T06:41:21.498Z,3.20
2018-09-19T06:42:21.487Z,4.30
2018-09-19T06:43:21.476Z,3.50
2018-09-19T06:44:21.474Z,4.10
2018-09-19T06:45:21.478Z,3.00
2018-09-19T06:46:21.453Z,3.00
2018-09-19T06:47:21.487Z,3.90
2018-09-19T06:48:22.055Z,2.90
2018-09-19T06:49:21.409Z,3.10
2018-09-19T06:50:21.414Z,3.10
2018-09-19T06:51:21.400Z,4.00
2018-09-19T06:52:22.085Z,3.10
2018-09-19T06:53:21.368Z,3.30
2018-09-19T06:54:21.354Z,3.40
2018-09-19T06:55:21.363Z,3.10
2018-09-19T06:56:21.370Z,3.30
2018-09-19T06:57:21.324Z,3.40
2018-09-19T06:58:21.311Z,3.20
2018-09-19T06:59:21.313Z,3.50
2018-09-19T07:00:21.308Z,3.50
2018-09-19T07:01:21.277Z,3.50
2018-09-19T07:02:21.320Z,3.40
2018-09-19T07:03:21.280Z,3.60
2018-09-19T07:04:21.245Z,3.00
2018-09-19T07:05:21.285Z,3.20
2018-09-19T07:06:21.226Z,3.40
2018-09-19T07:07:21.212Z,4.50
2018-09-19T07:08:21.202Z,3.40
2018-09-19T07:09:21.194Z,3.00
2018-09-19T07:10:21.253Z,3.40
2018-09-19T07:11:21.169Z,3.70
2018-09-19T07:12:21.166Z,3.80
2018-09-19T07:13:21.165Z,3.80
2018-09-19T07:14:21.154Z,4.20
2018-09-19T07:15:21.144Z,3.80
2018-09-19T07:16:21.157Z,4.20
2018-09-19T07:17:21.107Z,3.20
2018-09-19T07:18:21.098Z,3.30
2018-09-19T07:19:21.086Z,3.40
2018-09-19T07:20:21.086Z,3.50
2018-09-19T07:21:21.062Z,3.10
2018-09-19T07:22:21.049Z,3.60
2018-09-19T07:23:21.044Z,4.30
2018-09-19T07:24:21.032Z,3.30
2018-09-19T07:25:21.074Z,4.40
2018-09-19T07:26:21.038Z,4.00
2018-09-19T07:27:20.997Z,5.10
2018-09-19T07:28:20.985Z,3.60
2018-09-19T07:29:20.989Z,5.70
2018-09-19T07:30:20.980Z,6.00
2018-09-19T07:31:20.972Z,4.00
2018-09-19T07:32:20.968Z,3.20
2018-09-19T07:33:20.931Z,4.10
2018-09-19T07:34:20.922Z,4.80
2018-09-19T07:35:20.930Z,3.20
2018-09-19T07:36:20.897Z,3.10
2018-09-19T07:37:20.887Z,4.20
2018-09-19T07:38:20.885Z,4.30
2018-09-19T07:39:20.884Z,4.30
2018-09-19T07:40:20.953Z,4.40
2018-09-19T07:41:20.845Z,3.90
2018-09-19T07:42:20.840Z,4.90
2018-09-19T07:43:20.822Z,4.70
2018-09-19T07:44:20.817Z,3.30
2018-09-19T07:45:20.818Z,4.50
2018-09-19T07:46:20.841Z,3.50
2018-09-19T07:47:20.777Z,3.70
2018-09-19T07:48:20.769Z,4.80
2018-09-19T07:49:20.760Z,3.10
2018-09-19T07:50:20.768Z,3.10
2018-09-19T07:51:20.734Z,3.40
2018-09-19T07:52:20.758Z,3.80
2018-09-19T07:53:20.717Z,4.30
2018-09-19T07:54:20.701Z,4.80
2018-09-19T07:55:20.768Z,3.60
2018-09-19T07:56:20.706Z,4.30
2018-09-19T07:57:20.671Z,3.40
2018-09-19T07:58:20.659Z,4.10
2018-09-19T07:59:20.651Z,3.60
2018-09-19T08:00:20.698Z,4.10
2018-09-19T08:01:20.729Z,4.70
2018-09-19T08:02:20.642Z,3.80
2018-09-19T08:03:20.623Z,3.40
2018-09-19T08:04:20.593Z,3.40
2018-09-19T08:05:20.585Z,4.00
2018-09-19T08:06:20.589Z,3.70
2018-09-19T08:07:20.563Z,5.50
2018-09-19T08:08:20.553Z,4.20
2018-09-19T08:09:20.539Z,5.60
2018-09-19T08:10:20.531Z,3.80
2018-09-19T08:11:20.535Z,4.70
2018-09-19T08:12:20.521Z,4.80
2018-09-19T08:13:20.509Z,3.90
2018-09-19T08:14:20.494Z,3.80
2018-09-19T08:15:20.477Z,4.20
2018-09-19T08:16:20.479Z,3.50
2018-09-19T08:17:20.453Z,4.20
2018-09-19T08:18:20.449Z,3.40
2018-09-19T08:19:20.435Z,3.60
2018-09-19T08:20:20.424Z,4.10
2018-09-19T08:21:20.425Z,4.20
2018-09-19T08:22:20.399Z,3.60
2018-09-19T08:23:20.388Z,4.70
2018-09-19T08:24:20.391Z,4.20
2018-09-19T08:25:20.385Z,4.90
2018-09-19T08:26:20.373Z,3.60
2018-09-19T08:27:20.346Z,5.90
2018-09-19T08:28:20.336Z,3.90
2018-09-19T08:29:20.327Z,3.50
2018-09-19T08:30:20.324Z,3.80
2018-09-19T08:31:20.323Z,4.70
2018-09-19T08:32:20.294Z,3.70
2018-09-19T08:33:20.287Z,3.60
2018-09-19T08:34:20.271Z,4.10
2018-09-19T08:35:20.261Z,3.80
2018-09-19T08:36:20.271Z,4.40
2018-09-19T08:37:20.237Z,3.50
2018-09-19T08:38:20.232Z,4.00
2018-09-19T08:39:20.217Z,5.60
2018-09-19T08:40:20.218Z,4.60
2018-09-19T08:41:20.210Z,3.80
2018-09-19T08:42:20.186Z,4.10
2018-09-19T08:43:20.173Z,4.10
2018-09-19T08:44:20.183Z,4.40
2018-09-19T08:45:20.152Z,4.20
2018-09-19T08:46:20.166Z,4.90
2018-09-19T08:47:20.136Z,4.50
2018-09-19T08:48:20.121Z,4.50
2018-09-19T08:49:20.105Z,3.90
2018-09-19T08:50:20.094Z,5.50
2018-09-19T08:51:20.104Z,3.90
2018-09-19T08:52:20.073Z,4.70
2018-09-19T08:53:20.080Z,3.90
2018-09-19T08:54:20.060Z,3.90
2018-09-19T08:55:20.042Z,3.70
2018-09-19T08:56:20.046Z,3.80
2018-09-19T08:57:20.023Z,5.70
2018-09-19T08:58:20.008Z,3.90
2018-09-19T08:59:20.003Z,4.10
2018-09-19T09:00:19.993Z,5.00
2018-09-19T09:01:20.012Z,3.50
2018-09-19T09:02:19.966Z,3.90
2018-09-19T09:03:19.952Z,4.40
2018-09-19T09:04:19.942Z,4.00
2018-09-19T09:05:19.959Z,4.30
2018-09-19T09:06:19.950Z,4.10
2018-09-19T09:07:19.914Z,4.10
2018-09-19T09:08:19.897Z,5.10
2018-09-19T09:09:19.891Z,4.60
2018-09-19T09:10:19.884Z,4.20
2018-09-19T09:11:19.883Z,4.40
2018-09-19T09:12:19.998Z,4.70
2018-09-19T09:13:19.840Z,3.80
2018-09-19T09:14:19.845Z,4.20
2018-09-19T09:15:19.817Z,4.10
2018-09-19T09:16:19.823Z,4.00
2018-09-19T09:17:19.795Z,4.30
2018-09-19T09:18:19.785Z,4.50
2018-09-19T09:19:19.776Z,5.50
2018-09-19T09:20:19.770Z,4.20
2018-09-19T09:21:19.766Z,4.60
2018-09-19T09:22:19.739Z,4.20
2018-09-19T09:23:19.733Z,4.80
2018-09-19T09:24:19.740Z,4.50
2018-09-19T09:25:19.713Z,4.50
2018-09-19T09:26:19.727Z,4.10
2018-09-19T09:27:19.747Z,4.30
2018-09-19T09:28:19.682Z,5.60
2018-09-19T09:29:19.661Z,5.60
2018-09-19T09:30:19.654Z,5.40
2018-09-19T09:31:19.662Z,6.20
2018-09-19T09:32:19.627Z,6.10
2018-09-19T09:33:19.622Z,7.90
2018-09-19T09:34:19.626Z,7.40
2018-09-19T09:35:19.597Z,9.90
2018-09-19T09:36:19.589Z,7.30
2018-09-19T09:37:19.597Z,6.60
2018-09-19T09:38:19.563Z,8.20
2018-09-19T09:39:19.573Z,6.50
2018-09-19T09:40:19.554Z,8.70
2018-09-19T09:41:19.533Z,4.50
2018-09-19T09:42:19.529Z,4.90
2018-09-19T09:43:19.512Z,5.00
2018-09-19T09:44:19.492Z,6.40
2018-09-19T09:45:19.529Z,5.90
2018-09-19T09:46:19.472Z,4.60
2018-09-19T09:47:19.495Z,8.20
2018-09-19T09:48:19.469Z,6.00
2018-09-19T09:49:19.439Z,5.90
2018-09-19T09:50:19.501Z,7.40
2018-09-19T09:51:19.428Z,5.90
2018-09-19T09:52:19.477Z,6.40
2018-09-19T09:53:19.481Z,5.70
2018-09-19T09:54:19.383Z,6.50
2018-09-19T09:55:19.420Z,5.90
2018-09-19T09:56:19.358Z,5.90
2018-09-19T09:57:19.365Z,5.30
2018-09-19T09:58:19.357Z,5.00
2018-09-19T09:59:19.335Z,6.10
2018-09-19T10:00:19.340Z,4.60
2018-09-19T10:01:19.325Z,6.70
2018-09-19T10:02:19.307Z,4.80
2018-09-19T10:03:19.292Z,5.50
2018-09-19T10:04:19.271Z,5.20
2018-09-19T10:05:19.325Z,4.70
2018-09-19T10:06:19.295Z,6.20
2018-09-19T10:07:19.259Z,4.80
2018-09-19T10:08:19.227Z,5.60
2018-09-19T10:09:19.218Z,5.00
2018-09-19T10:10:19.216Z,4.90
2018-09-19T10:11:19.198Z,5.60
2018-09-19T10:12:19.197Z,4.90
2018-09-19T10:13:19.170Z,6.30
2018-09-19T10:14:19.161Z,5.40
2018-09-19T10:15:19.156Z,5.60
2018-09-19T10:16:19.139Z,4.90
2018-09-19T10:17:19.144Z,5.80
2018-09-19T10:18:19.118Z,6.10
2018-09-19T10:19:19.106Z,5.80
2018-09-19T10:20:19.094Z,6.40
2018-09-19T10:21:19.090Z,5.90
2018-09-19T10:22:19.094Z,7.20
2018-09-19T10:23:19.061Z,4.90
2018-09-19T10:24:19.049Z,5.60
2018-09-19T10:25:19.039Z,7.70
2018-09-19T10:26:19.030Z,6.50
2018-09-19T10:27:19.050Z,5.70
2018-09-19T10:28:19.008Z,5.60
2018-09-19T10:29:18.994Z,6.00
2018-09-19T10:30:18.986Z,5.70
2018-09-19T10:31:18.972Z,5.30
2018-09-19T10:32:18.979Z,5.90
2018-09-19T10:33:18.965Z,6.50
2018-09-19T10:34:18.940Z,5.60
2018-09-19T10:35:18.973Z,6.70
2018-09-19T10:36:18.918Z,5.50
2018-09-19T10:37:18.923Z,7.30
2018-09-19T10:38:18.900Z,6.70
2018-09-19T10:39:18.894Z,5.40
2018-09-19T10:40:18.877Z,6.20
2018-09-19T10:41:18.864Z,5.30
2018-09-19T10:42:18.867Z,5.40
2018-09-19T10:43:18.843Z,5.60
2018-09-19T10:44:18.832Z,5.60
2018-09-19T10:45:18.825Z,6.30
2018-09-19T10:46:18.809Z,6.30
2018-09-19T10:47:18.828Z,6.80
2018-09-19T10:48:18.796Z,7.00
2018-09-19T10:49:18.782Z,5.80
2018-09-19T10:50:18.766Z,7.10
2018-09-19T10:51:18.759Z,6.20
2018-09-19T10:52:18.756Z,6.40
2018-09-19T10:53:18.735Z,9.60
2018-09-19T10:54:18.727Z,7.50
2018-09-19T10:55:18.706Z,6.40
2018-09-19T10:56:18.698Z,6.10
2018-09-19T10:57:18.700Z,7.10
2018-09-19T10:58:18.673Z,6.80
2018-09-19T10:59:18.681Z,8.50
2018-09-19T11:00:18.652Z,7.20
2018-09-19T11:01:18.639Z,5.90
2018-09-19T11:02:18.656Z,6.10
2018-09-19T11:03:18.615Z,6.80
2018-09-19T11:04:18.604Z,5.50
2018-09-19T11:05:18.601Z,6.70
2018-09-19T11:06:18.588Z,6.70
2018-09-19T11:07:18.572Z,8.70
2018-09-19T11:08:18.581Z,8.20
2018-09-19T11:09:18.551Z,7.60
2018-09-19T11:10:18.558Z,7.10
2018-09-19T11:11:18.533Z,6.70
2018-09-19T11:12:18.516Z,8.50
2018-09-19T11:13:18.519Z,7.20
2018-09-19T11:14:18.491Z,8.00
2018-09-19T11:15:18.482Z,8.30
2018-09-19T11:16:18.468Z,7.10
2018-09-19T11:17:18.468Z,7.30
2018-09-19T11:18:18.461Z,6.70
2018-09-19T11:19:18.433Z,9.30
2018-09-19T11:20:18.425Z,7.20
2018-09-19T11:21:18.412Z,7.60
2018-09-19T11:22:18.400Z,9.10
2018-09-19T11:23:18.436Z,7.20
2018-09-19T11:24:18.377Z,7.60
2018-09-19T11:25:18.365Z,6.50
2018-09-19T11:26:18.359Z,7.00
2018-09-19T11:27:18.345Z,7.80
2018-09-19T11:28:18.355Z,6.10
2018-09-19T11:29:18.320Z,7.00
2018-09-19T11:30:18.309Z,6.10
2018-09-19T11:31:18.306Z,7.00
2018-09-19T11:32:18.291Z,6.70
2018-09-19T11:33:18.288Z,7.30
2018-09-19T11:34:18.262Z,7.90
2018-09-19T11:35:18.252Z,8.50
2018-09-19T11:36:18.241Z,6.40
2018-09-19T11:37:18.227Z,7.40
2018-09-19T11:38:18.246Z,7.70
2018-09-19T11:39:18.205Z,6.90
2018-09-19T11:40:18.199Z,8.30
2018-09-19T11:41:18.183Z,6.50
2018-09-19T11:42:18.172Z,6.70
2018-09-19T11:43:18.183Z,6.60
2018-09-19T11:44:18.172Z,8.00
2018-09-19T11:45:18.177Z,6.40
2018-09-19T11:46:18.127Z,8.30
2018-09-19T11:47:18.118Z,8.60
2018-09-19T11:48:18.124Z,6.20
2018-09-19T11:49:18.097Z,8.80
2018-09-19T11:50:18.082Z,7.40
2018-09-19T11:51:18.071Z,7.30
2018-09-19T11:52:18.089Z,7.70
2018-09-19T11:53:18.063Z,7.20
2018-09-19T11:54:18.044Z,7.10
2018-09-19T11:55:18.032Z,6.50
2018-09-19T11:56:18.015Z,7.40
2018-09-19T11:57:18.005Z,6.50
2018-09-19T11:58:18.009Z,6.70
2018-09-19T11:59:17.994Z,7.20
2018-09-19T12:00:17.970Z,6.80
2018-09-19T12:01:17.961Z,7.10
2018-09-19T12:02:17.960Z,6.00
2018-09-19T12:03:17.952Z,7.70
2018-09-19T12:04:17.926Z,7.10
2018-09-19T12:05:17.919Z,7.20
2018-09-19T12:06:17.905Z,5.90
2018-09-19T12:07:17.974Z,6.70
2018-09-19T12:08:17.899Z,5.90
2018-09-19T12:09:17.872Z,6.80
2018-09-19T12:10:17.860Z,7.40
2018-09-19T12:11:17.859Z,6.80
2018-09-19T12:12:17.839Z,6.60
2018-09-19T12:13:17.843Z,5.60
2018-09-19T12:14:17.821Z,5.70
2018-09-19T12:15:17.805Z,7.40
2018-09-19T12:16:17.795Z,5.60
2018-09-19T12:17:17.799Z,5.50
2018-09-19T12:18:17.787Z,6.00
2018-09-19T12:19:17.779Z,5.30
2018-09-19T12:20:17.752Z,5.60
2018-09-19T12:21:17.743Z,6.00
2018-09-19T12:22:17.744Z,5.70
2018-09-19T12:23:17.741Z,6.80
2018-09-19T12:24:17.713Z,5.90
2018-09-19T12:25:17.696Z,5.40
2018-09-19T12:26:17.702Z,4.90
2018-09-19T12:27:17.674Z,5.20
2018-09-19T12:28:17.681Z,5.20
2018-09-19T12:29:17.654Z,5.10
2018-09-19T12:30:17.640Z,5.50
2018-09-19T12:31:17.631Z,5.10
2018-09-19T12:32:17.621Z,5.50
2018-09-19T12:33:17.676Z,5.00
2018-09-19T12:34:17.597Z,4.90
2018-09-19T12:35:17.600Z,5.20
2018-09-19T12:36:17.580Z,5.60
2018-09-19T12:37:17.564Z,5.50
2018-09-19T12:38:17.552Z,4.90
2018-09-19T12:39:17.556Z,4.70
2018-09-19T12:40:17.533Z,4.90
2018-09-19T12:41:17.528Z,5.10
2018-09-19T12:42:17.509Z,5.60
2018-09-19T12:43:17.497Z,5.40
2018-09-19T12:44:17.503Z,5.10
2018-09-19T12:45:17.499Z,5.50
2018-09-19T12:46:17.468Z,5.10
2018-09-19T12:47:17.463Z,4.80
2018-09-19T12:48:17.445Z,4.80
2018-09-19T12:49:17.451Z,5.00
2018-09-19T12:50:17.422Z,5.10
2018-09-19T12:51:17.412Z,5.20
2018-09-19T12:52:17.400Z,4.90
2018-09-19T12:53:17.474Z,5.20
2018-09-19T12:54:17.392Z,5.70
2018-09-19T12:55:17.373Z,5.20
2018-09-19T12:56:17.357Z,4.80
2018-09-19T12:57:17.349Z,5.30
2018-09-19T12:58:17.337Z,5.70
2018-09-19T12:59:17.349Z,5.90
2018-09-19T13:00:17.321Z,5.00
2018-09-19T13:01:17.307Z,5.10
2018-09-19T13:02:17.291Z,5.70
2018-09-19T13:03:17.281Z,5.50
2018-09-19T13:04:17.332Z,4.90
2018-09-19T13:05:17.268Z,6.40
2018-09-19T13:06:17.250Z,6.70
2018-09-19T13:07:17.236Z,6.80
2018-09-19T13:08:17.227Z,5.60
2018-09-19T13:09:17.231Z,5.40
2018-09-19T13:10:17.203Z,6.20
2018-09-19T13:11:17.202Z,6.50
2018-09-19T13:12:17.178Z,6.20
2018-09-19T13:13:17.168Z,5.60
2018-09-19T13:14:17.172Z,5.70
2018-09-19T13:15:17.145Z,5.20
2018-09-19T13:16:17.136Z,5.40
2018-09-19T13:17:17.129Z,5.40
2018-09-19T13:18:17.115Z,5.20